Ambulong, Philippines

7:14 AM PHT on July 23, 2014 (GMT +0800)
Ninoy Aquino International (RPLL) Elev 49 ft | 14.51 °N, 121.00 °E | Change Station

Current weather conditions updated 14 minutes ago

Light Rain
Light Rain
79 °F
Feels Like 79 °F
N
4
Wind Variable Wind from SSW

Today is forecast to be nearly the same temperature as yesterday. Thunderstorms.

Today
High -- | Low -- °F
--% Chance of Precip.
Yesterday
High -- | Low -- °F
Precip. -- in
5:37 AM 6:26 PM
Waning Crescent, 14% visible
Pressure 29.74 in
Visibility 5.6 miles
Clouds Scattered Clouds 2200 ft
Overcast 9000 ft
Dew Point 79 °F
Humidity 100%
Rainfall 0.00 in
Snow Depth Not available.
UV 1 out of 12
Pollen Not available.
Air Quality Not available.
Flu Activity Not available.
METAR RPLL 222300Z 20003KT 150V240 9000 -RA SCT022 OVC090 26/26 Q1007 NOSIG RMK A2974

More Conditions Fewer Conditions

Pressure 29.74 in
Visibility 5.6 miles
Clouds Scattered Clouds 2200 ft
Overcast 9000 ft
Dew Point 79 °F
Humidity 100%
Rainfall 0.00 in
Snow Depth Not available.
UV 1 out of 12
Pollen Not available.
Air Quality Not available.
Flu Activity Not available.
METAR RPLL 222300Z 20003KT 150V240 9000 -RA SCT022 OVC090 26/26 Q1007 NOSIG RMK A2974

More Conditions Fewer Conditions

10-Day Weather Forecast

Almanac

Astronomy

Jul. 23, 2014 Rise Set
Actual Time 5:37 AM PHT 6:26 PM PHT
Civil Twilight 5:14 AM PHT 6:49 PM PHT
Nautical Twilight 4:47 AM PHT 7:16 PM PHT
Astronomical Twilight 4:20 AM PHT 7:44 PM PHT
Moon 2:24 AM PHT (7/23) 3:29 PM PHT (7/23)
Length of Visible Light 13h 35m
Length of Day
12h 49m
Tomorrow will be 0m 29s shorter.
Waning Crescent, 14% of the Moon is Illuminated
Jul 22
Waning Crescent
Jul 26
New
Aug 3
First Quarter
Aug 10
Full
Aug 17
Last Quarter

Yesterday's Extremes

Country Highs Country Lows

Community

WunderPhotos

Upload Photos

1,736,391 photos uploaded!

Nearby

Snow Depth

Not available.

Earthquake Activity

City Distance Mag. Time & Date
No recent earthquake activity has been reported nearby.
Minimum magnitude displayed is 2.5.

Coastal Water Temperatures

Place Temperature
No Stations Reporting

Nearby Weather Stations

There are no personal weather stations in this area.